Time,TemperatureF,DewpointF,PressureIn,WindDirection,WindDirectionDegrees,WindSpeedMPH,WindSpeedGustMPH,Humidity,HourlyPrecipIn,Conditions,Clouds,dailyrainin,SoftwareType,DateUTC
2013-08-02 00:12:00,71.0,-99.9,-100.00,SSE,152,1.0,4.0,-999,0.00,,,0.00,,2013-08-02 05:12:00,
2013-08-02 00:22:00,71.0,-99.9,-100.00,SSE,152,1.0,4.0,-999,0.00,,,0.00,,2013-08-02 05:22:00,
2013-08-02 00:43:00,70.0,-99.9,-100.00,SSE,159,2.0,4.0,-999,0.00,,,0.00,,2013-08-02 05:43:00,
2013-08-02 00:53:00,70.0,-99.9,-100.00,SSE,159,2.0,4.0,-999,0.00,,,0.00,,2013-08-02 05:53:00,
2013-08-02 01:12:00,70.0,-99.9,-100.00,SW,225,0.0,1.0,-999,0.00,,,0.00,,2013-08-02 06:12:00,
2013-08-02 01:22:00,70.0,-99.9,-100.00,SW,225,0.0,1.0,-999,0.00,,,0.00,,2013-08-02 06:22:00,
2013-08-02 01:43:00,70.0,-99.9,-100.00,SSW,196,0.0,2.0,-999,0.00,,,0.00,,2013-08-02 06:43:00,
2013-08-02 01:53:00,70.0,-99.9,-100.00,SSW,196,0.0,2.0,-999,0.00,,,0.00,,2013-08-02 06:53:00,
2013-08-02 02:12:00,68.0,-99.9,-100.00,SSW,209,1.0,2.0,-999,0.00,,,0.00,,2013-08-02 07:12:00,
2013-08-02 02:23:00,68.0,-99.9,-100.00,SSW,209,1.0,2.0,-999,0.00,,,0.00,,2013-08-02 07:23:00,
2013-08-02 02:44:00,65.0,-99.9,-100.00,SW,229,2.0,4.0,-999,0.00,,,0.00,,2013-08-02 07:44:00,
2013-08-02 02:53:00,65.0,-99.9,-100.00,SW,229,2.0,4.0,-999,0.00,,,0.00,,2013-08-02 07:53:00,
2013-08-02 03:12:00,65.0,-99.9,-100.00,SW,235,1.0,2.0,-999,0.00,,,0.00,,2013-08-02 08:12:00,
2013-08-02 03:22:00,65.0,-99.9,-100.00,SW,235,1.0,2.0,-999,0.00,,,0.00,,2013-08-02 08:22:00,
2013-08-02 03:44:00,65.0,-99.9,-100.00,SW,229,2.0,4.0,-999,0.00,,,0.00,,2013-08-02 08:44:00,
2013-08-02 03:54:00,65.0,-99.9,-100.00,SW,229,2.0,4.0,-999,0.00,,,0.00,,2013-08-02 08:54:00,
2013-08-02 04:12:00,64.0,-99.9,-100.00,SW,230,2.0,4.0,-999,0.00,,,0.00,,2013-08-02 09:12:00,
2013-08-02 04:23:00,64.0,-99.9,-100.00,SW,230,2.0,4.0,-999,0.00,,,0.00,,2013-08-02 09:23:00,
2013-08-02 04:44:00,65.0,-99.9,-100.00,SSE,150,1.0,2.0,-999,0.00,,,0.00,,2013-08-02 09:44:00,
2013-08-02 04:53:00,65.0,-99.9,-100.00,SSE,150,1.0,2.0,-999,0.00,,,0.00,,2013-08-02 09:53:00,
2013-08-02 05:03:00,65.0,-99.9,-100.00,SSE,153,1.0,2.0,-999,0.00,,,0.00,,2013-08-02 10:03:00,
2013-08-02 05:12:00,65.0,-99.9,-100.00,SSE,153,1.0,2.0,-999,0.00,,,0.00,,2013-08-02 10:12:00,
2013-08-02 05:23:00,65.0,-99.9,-100.00,SSE,153,1.0,2.0,-999,0.00,,,0.00,,2013-08-02 10:23:00,
2013-08-02 05:43:00,65.0,-99.9,-100.00,SSW,193,1.0,2.0,-999,0.00,,,0.00,,2013-08-02 10:43:00,
2013-08-02 05:52:00,65.0,-99.9,-100.00,SSW,193,1.0,2.0,-999,0.00,,,0.00,,2013-08-02 10:52:00,
2013-08-02 06:02:00,64.0,-99.9,-100.00,SSW,201,0.0,2.0,-999,0.00,,,0.00,,2013-08-02 11:02:00,
2013-08-02 06:12:00,64.0,-99.9,-100.00,SSW,201,0.0,2.0,-999,0.00,,,0.00,,2013-08-02 11:12:00,
2013-08-02 06:23:00,64.0,-99.9,-100.00,SSW,201,0.0,2.0,-999,0.00,,,0.00,,2013-08-02 11:23:00,
2013-08-02 06:43:00,65.0,-99.9,-100.00,SW,222,1.0,2.0,-999,0.00,,,0.00,,2013-08-02 11:43:00,
2013-08-02 06:52:00,65.0,-99.9,-100.00,SW,222,1.0,2.0,-999,0.00,,,0.00,,2013-08-02 11:52:00,
2013-08-02 07:12:00,64.0,-99.9,-100.00,SW,221,2.0,3.0,-999,0.00,,,0.00,,2013-08-02 12:12:00,
2013-08-02 07:22:00,64.0,-99.9,-100.00,SW,221,2.0,3.0,-999,0.00,,,0.00,,2013-08-02 12:22:00,
2013-08-02 07:43:00,67.0,-99.9,-100.00,SSE,154,1.0,3.0,-999,0.00,,,0.00,,2013-08-02 12:43:00,
2013-08-02 07:52:00,67.0,-99.9,-100.00,SSE,154,1.0,3.0,-999,0.00,,,0.00,,2013-08-02 12:52:00,
2013-08-02 08:03:00,69.0,-99.9,-100.00,SW,224,0.0,2.0,-999,0.00,,,0.00,,2013-08-02 13:03:00,
2013-08-02 08:12:00,69.0,-99.9,-100.00,SW,224,0.0,2.0,-999,0.00,,,0.00,,2013-08-02 13:12:00,
2013-08-02 08:23:00,69.0,-99.9,-100.00,SW,224,0.0,2.0,-999,0.00,,,0.00,,2013-08-02 13:23:00,
2013-08-02 08:33:00,71.0,-99.9,-100.00,WSW,243,1.0,4.0,-999,0.00,,,0.00,,2013-08-02 13:33:00,
2013-08-02 08:43:00,71.0,-99.9,-100.00,WSW,243,1.0,4.0,-999,0.00,,,0.00,,2013-08-02 13:43:00,
2013-08-02 08:53:00,71.0,-99.9,-100.00,WSW,243,1.0,4.0,-999,0.00,,,0.00,,2013-08-02 13:53:00,
2013-08-02 09:12:00,73.0,-99.9,-100.00,SW,230,2.0,7.0,-999,0.00,,,0.00,,2013-08-02 14:12:00,
2013-08-02 09:23:00,73.0,-99.9,-100.00,SW,230,2.0,7.0,-999,0.00,,,0.00,,2013-08-02 14:23:00,
2013-08-02 09:43:00,75.0,-99.9,-100.00,WNW,294,2.0,6.0,-999,0.00,,,0.00,,2013-08-02 14:43:00,
2013-08-02 09:53:00,75.0,-99.9,-100.00,WNW,294,2.0,6.0,-999,0.00,,,0.00,,2013-08-02 14:53:00,
2013-08-02 10:12:00,77.0,-99.9,-100.00,NNW,347,3.0,6.0,-999,0.00,,,0.00,,2013-08-02 15:12:00,
2013-08-02 10:22:00,77.0,-99.9,-100.00,NNW,347,3.0,6.0,-999,0.00,,,0.00,,2013-08-02 15:22:00,
2013-08-02 10:43:00,76.0,-99.9,-100.00,North,349,8.0,10.0,-999,0.00,,,0.00,,2013-08-02 15:43:00,
2013-08-02 10:53:00,76.0,-99.9,-100.00,North,349,8.0,10.0,-999,0.00,,,0.00,,2013-08-02 15:53:00,
2013-08-02 11:12:00,77.0,-99.9,-100.00,North,351,5.0,8.0,-999,0.00,,,0.00,,2013-08-02 16:12:00,
2013-08-02 11:22:00,77.0,-99.9,-100.00,North,351,5.0,8.0,-999,0.00,,,0.00,,2013-08-02 16:22:00,
2013-08-02 11:32:00,77.0,-99.9,-100.00,NNE,15,5.0,7.0,-999,0.00,,,0.00,,2013-08-02 16:32:00,
2013-08-02 11:43:00,77.0,-99.9,-100.00,NNE,15,5.0,7.0,-999,0.00,,,0.00,,2013-08-02 16:43:00,
2013-08-02 11:53:00,77.0,-99.9,-100.00,NNE,15,5.0,7.0,-999,0.00,,,0.00,,2013-08-02 16:53:00,
2013-08-02 12:12:00,79.0,-99.9,-100.00,North,3,6.0,7.0,-999,0.00,,,0.00,,2013-08-02 17:12:00,
2013-08-02 12:22:00,79.0,-99.9,-100.00,North,3,6.0,7.0,-999,0.00,,,0.00,,2013-08-02 17:22:00,
2013-08-02 12:35:00,79.0,-99.9,-100.00,North,358,7.0,9.0,-999,0.00,,,0.00,,2013-08-02 17:35:00,
2013-08-02 12:43:00,79.0,-99.9,-100.00,North,358,7.0,9.0,-999,0.00,,,0.00,,2013-08-02 17:43:00,
2013-08-02 12:52:00,79.0,-99.9,-100.00,North,358,7.0,9.0,-999,0.00,,,0.00,,2013-08-02 17:52:00,
2013-08-02 13:03:00,79.0,-99.9,-100.00,North,5,7.0,8.0,-999,0.00,,,-99.99,,2013-08-02 18:03:00,
2013-08-02 13:12:00,79.0,-99.9,-100.00,North,5,7.0,8.0,-999,0.00,,,-99.99,,2013-08-02 18:12:00,
2013-08-02 13:22:00,79.0,-99.9,-100.00,North,5,7.0,8.0,-999,0.00,,,-99.99,,2013-08-02 18:22:00,
2013-08-02 13:33:00,79.0,-99.9,-100.00,NNE,18,6.0,9.0,-999,0.00,,,0.00,,2013-08-02 18:33:00,
2013-08-02 13:43:00,79.0,-99.9,-100.00,NNE,18,6.0,9.0,-999,0.00,,,0.00,,2013-08-02 18:43:00,
2013-08-02 13:52:00,79.0,-99.9,-100.00,NNE,18,6.0,9.0,-999,0.00,,,0.00,,2013-08-02 18:52:00,
2013-08-02 14:02:00,80.0,-99.9,-100.00,North,11,7.0,10.0,-999,0.00,,,0.00,,2013-08-02 19:02:00,
2013-08-02 14:12:00,80.0,-99.9,-100.00,North,11,7.0,10.0,-999,0.00,,,0.00,,2013-08-02 19:12:00,
2013-08-02 14:22:00,80.0,-99.9,-100.00,North,11,7.0,10.0,-999,0.00,,,0.00,,2013-08-02 19:22:00,
2013-08-02 14:43:00,82.0,-99.9,-100.00,NNE,16,5.0,8.0,-999,0.00,,,0.00,,2013-08-02 19:43:00,
2013-08-02 14:52:00,82.0,-99.9,-100.00,NNE,16,5.0,8.0,-999,0.00,,,0.00,,2013-08-02 19:52:00,
2013-08-02 15:12:00,82.0,-99.9,-100.00,North,360,3.0,6.0,-999,0.00,,,0.00,,2013-08-02 20:12:00,
2013-08-02 15:23:00,82.0,-99.9,-100.00,North,360,3.0,6.0,-999,0.00,,,0.00,,2013-08-02 20:23:00,
2013-08-02 15:43:00,82.0,-99.9,-100.00,NW,315,1.0,5.0,-999,0.00,,,0.00,,2013-08-02 20:43:00,
2013-08-02 15:52:00,82.0,-99.9,-100.00,NW,315,1.0,5.0,-999,0.00,,,0.00,,2013-08-02 20:52:00,
2013-08-02 16:12:00,82.0,-99.9,-100.00,NW,317,3.0,6.0,-999,0.00,,,0.00,,2013-08-02 21:12:00,
2013-08-02 16:22:00,82.0,-99.9,-100.00,NW,317,3.0,6.0,-999,0.00,,,0.00,,2013-08-02 21:22:00,
2013-08-02 16:43:00,81.0,-99.9,-100.00,North,357,8.0,10.0,-999,0.00,,,0.00,,2013-08-02 21:43:00,
2013-08-02 16:53:00,81.0,-99.9,-100.00,North,357,8.0,10.0,-999,0.00,,,0.00,,2013-08-02 21:53:00,
2013-08-02 17:12:00,79.0,-99.9,-100.00,North,356,12.0,15.0,-999,0.00,,,0.00,,2013-08-02 22:12:00,
2013-08-02 17:22:00,79.0,-99.9,-100.00,North,356,12.0,15.0,-999,0.00,,,0.00,,2013-08-02 22:22:00,
2013-08-02 17:43:00,80.0,-99.9,-100.00,NNW,348,10.0,15.0,-999,0.00,,,0.00,,2013-08-02 22:43:00,
2013-08-02 17:52:00,80.0,-99.9,-100.00,NNW,348,10.0,15.0,-999,0.00,,,0.00,,2013-08-02 22:52:00,
2013-08-02 18:12:00,80.0,-99.9,-100.00,NNW,337,6.0,11.0,-999,0.00,,,0.00,,2013-08-02 23:12:00,
2013-08-02 18:22:00,80.0,-99.9,-100.00,NNW,337,6.0,11.0,-999,0.00,,,0.00,,2013-08-02 23:22:00,
2013-08-02 18:32:00,79.0,-99.9,-100.00,NNW,339,6.0,10.0,-999,0.00,,,0.00,,2013-08-02 23:32:00,
2013-08-02 18:44:00,79.0,-99.9,-100.00,NNW,339,6.0,10.0,-999,0.00,,,0.00,,2013-08-02 23:44:00,
2013-08-02 18:53:00,79.0,-99.9,-100.00,NNW,339,6.0,10.0,-999,0.00,,,0.00,,2013-08-02 23:53:00,
2013-08-02 19:02:00,76.0,-99.9,-100.00,WNW,296,2.0,4.0,-999,0.00,,,0.00,,2013-08-03 00:02:00,
2013-08-02 19:12:00,76.0,-99.9,-100.00,WNW,296,2.0,4.0,-999,0.00,,,0.00,,2013-08-03 00:12:00,
2013-08-02 19:22:00,76.0,-99.9,-100.00,WNW,296,2.0,4.0,-999,0.00,,,0.00,,2013-08-03 00:22:00,
2013-08-02 19:43:00,75.0,-99.9,-100.00,WNW,299,3.0,5.0,-999,0.00,,,0.00,,2013-08-03 00:43:00,
2013-08-02 19:52:00,75.0,-99.9,-100.00,WNW,299,3.0,5.0,-999,0.00,,,0.00,,2013-08-03 00:52:00,
2013-08-02 20:12:00,71.0,-99.9,-100.00,WSW,255,1.0,3.0,-999,0.00,,,0.00,,2013-08-03 01:12:00,
2013-08-02 20:22:00,71.0,-99.9,-100.00,WSW,255,1.0,3.0,-999,0.00,,,0.00,,2013-08-03 01:22:00,
2013-08-02 20:33:00,71.0,-99.9,-100.00,West,268,2.0,3.0,-999,0.00,,,0.00,,2013-08-03 01:33:00,
2013-08-02 20:43:00,71.0,-99.9,-100.00,West,268,2.0,3.0,-999,0.00,,,0.00,,2013-08-03 01:43:00,
2013-08-02 20:53:00,71.0,-99.9,-100.00,West,268,2.0,3.0,-999,0.00,,,0.00,,2013-08-03 01:53:00,
2013-08-02 21:12:00,70.0,-99.9,-100.00,SSE,153,1.0,2.0,-999,0.01,,,0.01,,2013-08-03 02:12:00,
2013-08-02 21:22:00,70.0,-99.9,-100.00,SSE,153,1.0,2.0,-999,0.01,,,0.01,,2013-08-03 02:22:00,
2013-08-02 21:32:00,68.0,-99.9,-100.00,SW,219,3.0,6.0,-999,0.01,,,0.01,,2013-08-03 02:32:00,
2013-08-02 21:43:00,68.0,-99.9,-100.00,SW,219,3.0,6.0,-999,0.01,,,0.01,,2013-08-03 02:43:00,
2013-08-02 21:53:00,68.0,-99.9,-100.00,SW,219,3.0,6.0,-999,0.01,,,0.01,,2013-08-03 02:53:00,
2013-08-02 22:12:00,68.0,-99.9,-100.00,SW,227,3.0,4.0,-999,0.00,,,0.01,,2013-08-03 03:12:00,
2013-08-02 22:22:00,68.0,-99.9,-100.00,SW,227,3.0,4.0,-999,0.00,,,0.01,,2013-08-03 03:22:00,
2013-08-02 22:43:00,68.0,-99.9,-100.00,WSW,240,2.0,3.0,-999,0.00,,,0.01,,2013-08-03 03:43:00,
2013-08-02 22:53:00,68.0,-99.9,-100.00,WSW,240,2.0,3.0,-999,0.00,,,0.01,,2013-08-03 03:53:00,
2013-08-02 23:02:00,67.0,-99.9,-100.00,SW,233,3.0,4.0,-999,0.00,,,0.01,,2013-08-03 04:02:00,
2013-08-02 23:12:00,67.0,-99.9,-100.00,SW,233,3.0,4.0,-999,0.00,,,0.01,,2013-08-03 04:12:00,
2013-08-02 23:22:00,67.0,-99.9,-100.00,SW,233,3.0,4.0,-999,0.00,,,0.01,,2013-08-03 04:22:00,
2013-08-02 23:32:00,67.0,-99.9,-100.00,SW,233,2.0,2.0,-999,0.00,,,0.01,,2013-08-03 04:32:00,
2013-08-02 23:43:00,67.0,-99.9,-100.00,SW,233,2.0,2.0,-999,0.00,,,0.01,,2013-08-03 04:43:00,
2013-08-02 23:53:00,67.0,-99.9,-100.00,SW,233,2.0,2.0,-999,0.00,,,0.01,,2013-08-03 04:53:00,